WEATHER

Warnervale Skycam

North West View

North West View

South West View

South West View

Mean Sea Level Pressure Analysis (Synoptic Chart)

Synoptic Chart

  • YSSY TAF

    TAF YSSY 190507Z 1906/2012 20020G30KT 9999 -SHRA SCT030 BKN045 FM191000 21015G25KT 9999 -SHRA SCT030 BKN045 FM191400 21012KT 9999 -SHRA SCT030 BKN045 FM192300 17015KT 9999 FEW030 SCT045 FM201000 23008KT 9999 FEW030 BKN040 INTER 1906/1922 5000 SHRA BKN015 RMK FM190600 MOD TURB BLW 5000FT TILL191000 T 14 14 14 14 Q 1021 1023 1024 1024

  • YSSY METAR

    METAR YSSY 190630Z 21023KT 9999 VCSH FEW022 SCT030 15/11 Q1021 RMK RF00.0/008.0 DIST CB TOPS TO NE

Sydney Rainfall Radar

128 km Sydney Radar

Sydney Rainfall Radar

 

512 km Sydney Radar

Sydney Rainfall Radar 512km

 

Rainfall radar and satellite images obtained from the Bureau of Meteorology. All information provided on this page is for general information and should NOT be used for flight planning.